createdAt,value
2022-11-29T00:00:16.282Z,-6.92
2022-11-29T00:05:19.404Z,-6.99
2022-11-29T00:10:25.069Z,-7.03
2022-11-29T00:15:28.193Z,-7.09
2022-11-29T00:20:31.896Z,-7.14
2022-11-29T00:25:35.011Z,-7.22
2022-11-29T00:30:38.158Z,-7.30
2022-11-29T00:35:44.110Z,-7.31
2022-11-29T00:40:52.099Z,-7.32
2022-11-29T00:45:55.217Z,-7.34
2022-11-29T00:50:58.412Z,-7.40
2022-11-29T00:56:03.369Z,-7.44
2022-11-29T01:01:06.551Z,-7.48
2022-11-29T01:06:13.149Z,-7.55
2022-11-29T01:11:22.377Z,-7.55
2022-11-29T01:16:25.950Z,-7.57
2022-11-29T01:21:34.639Z,-7.62
2022-11-29T01:26:37.745Z,-7.62
2022-11-29T01:31:40.839Z,-7.64
2022-11-29T01:36:43.998Z,-7.67
2022-11-29T01:41:47.100Z,-7.67
2022-11-29T01:46:50.218Z,-7.77
2022-11-29T01:52:07.811Z,-7.79
2022-11-29T01:57:13.536Z,-7.82
2022-11-29T02:02:39.779Z,-7.83
2022-11-29T02:07:46.402Z,-7.86
2022-11-29T02:12:55.864Z,-7.85
2022-11-29T02:18:10.808Z,-7.90
2022-11-29T02:23:25.944Z,-7.95
2022-11-29T02:28:48.838Z,-7.92
2022-11-29T02:34:07.795Z,-7.95
2022-11-29T02:39:38.899Z,-7.97
2022-11-29T02:44:53.757Z,-8.03
2022-11-29T02:50:35.747Z,-8.08
2022-11-29T02:55:47.175Z,-8.07
2022-11-29T03:01:16.885Z,-8.06
2022-11-29T03:06:38.334Z,-8.09
2022-11-29T03:12:11.600Z,-8.12
2022-11-29T03:17:32.413Z,-8.22
2022-11-29T03:22:43.379Z,-8.19
2022-11-29T03:27:56.229Z,-8.26
2022-11-29T03:33:35.160Z,-8.27
2022-11-29T03:38:44.994Z,-8.26
2022-11-29T03:43:56.906Z,-8.32
2022-11-29T03:49:31.386Z,-8.35
2022-11-29T03:55:10.244Z,-8.34
2022-11-29T04:00:14.593Z,-8.34
2022-11-29T04:05:20.797Z,-8.38
2022-11-29T04:10:43.920Z,-8.41
2022-11-29T04:16:24.086Z,-8.47
2022-11-29T04:21:42.798Z,-8.45
2022-11-29T04:27:01.218Z,-8.46
2022-11-29T04:32:16.171Z,-8.45
2022-11-29T04:37:49.774Z,-8.46
2022-11-29T04:43:01.742Z,-8.42
2022-11-29T04:48:15.057Z,-8.42
2022-11-29T04:54:03.279Z,-8.39
2022-11-29T04:59:19.752Z,-8.36
2022-11-29T05:04:47.239Z,-8.30
2022-11-29T05:10:01.336Z,-8.26
2022-11-29T05:15:22.943Z,-8.28
2022-11-29T05:21:03.462Z,-8.20
2022-11-29T05:26:09.949Z,-8.11
2022-11-29T05:31:25.733Z,-8.03
2022-11-29T05:36:59.479Z,-7.98
2022-11-29T05:42:05.824Z,-7.93
2022-11-29T05:47:16.397Z,-7.84
2022-11-29T05:52:44.655Z,-7.69
2022-11-29T05:57:57.871Z,-7.65
2022-11-29T06:03:27.889Z,-7.59
2022-11-29T06:08:55.194Z,-7.51
2022-11-29T06:14:17.613Z,-7.44
2022-11-29T06:19:32.787Z,-7.36
2022-11-29T06:24:48.102Z,-7.28
2022-11-29T06:30:13.868Z,-7.20
2022-11-29T06:35:46.089Z,-7.14
2022-11-29T06:40:50.876Z,-7.05
2022-11-29T06:46:24.271Z,-6.96
2022-11-29T06:52:17.967Z,-6.76
2022-11-29T06:57:26.948Z,-6.40
2022-11-29T07:02:56.464Z,-4.48
2022-11-29T07:08:26.568Z,-1.98
2022-11-29T07:13:29.965Z,-0.68
2022-11-29T07:18:33.094Z,0.63
2022-11-29T07:23:39.600Z,1.48
2022-11-29T07:29:02.421Z,2.60
2022-11-29T07:34:46.508Z,2.50
2022-11-29T07:40:02.077Z,2.71
2022-11-29T07:45:28.957Z,3.03
2022-11-29T07:50:32.506Z,2.93
2022-11-29T07:55:37.280Z,2.94
2022-11-29T08:00:43.206Z,2.93
2022-11-29T08:05:48.096Z,3.43
2022-11-29T08:10:51.287Z,3.87
2022-11-29T08:15:54.397Z,3.58
2022-11-29T08:20:57.590Z,3.84
2022-11-29T08:26:02.787Z,4.15
2022-11-29T08:31:10.046Z,4.41
2022-11-29T08:41:52.961Z,4.86
2022-11-29T08:47:14.622Z,4.18
2022-11-29T08:52:36.005Z,4.41
2022-11-29T08:57:40.855Z,5.07
2022-11-29T09:02:45.232Z,4.36
2022-11-29T09:07:48.913Z,3.64
2022-11-29T09:12:55.535Z,3.71
2022-11-29T09:17:58.734Z,3.83
2022-11-29T09:23:02.446Z,3.65
2022-11-29T09:28:06.076Z,3.57
2022-11-29T09:33:09.282Z,4.07
2022-11-29T09:38:15.510Z,4.09
2022-11-29T09:43:30.096Z,4.19
2022-11-29T09:49:10.805Z,4.45
2022-11-29T09:54:23.421Z,4.39
2022-11-29T09:59:41.355Z,4.06
2022-11-29T10:04:54.026Z,4.07
2022-11-29T10:10:03.792Z,3.66
2022-11-29T10:15:20.195Z,3.54
2022-11-29T10:20:26.835Z,3.53
2022-11-29T10:25:42.726Z,3.53
2022-11-29T10:30:47.488Z,2.94
2022-11-29T10:35:55.989Z,2.86
2022-11-29T10:41:12.587Z,2.38
2022-11-29T10:46:32.912Z,1.54
2022-11-29T10:51:57.481Z,1.04
2022-11-29T10:57:02.247Z,0.35
2022-11-29T11:02:19.893Z,0.11
2022-11-29T11:07:31.946Z,-0.03
2022-11-29T11:12:38.835Z,-0.42
2022-11-29T11:18:00.829Z,-0.64
2022-11-29T11:23:08.662Z,-0.67
2022-11-29T11:28:24.841Z,-0.75
2022-11-29T11:33:49.603Z,-0.95
2022-11-29T11:38:59.764Z,-0.98
2022-11-29T11:44:26.306Z,-1.18
2022-11-29T11:50:09.946Z,-1.32
2022-11-29T11:55:22.513Z,-1.34
2022-11-29T12:01:03.433Z,-1.54
2022-11-29T12:06:28.113Z,-1.71
2022-11-29T12:11:42.518Z,-1.75
2022-11-29T12:16:50.698Z,-1.81
2022-11-29T12:22:03.062Z,-1.81
2022-11-29T12:27:27.654Z,-1.88
2022-11-29T12:32:33.619Z,-1.98
2022-11-29T12:37:43.298Z,-2.05
2022-11-29T12:43:05.149Z,-2.14
2022-11-29T12:48:28.802Z,-2.15
2022-11-29T12:54:04.490Z,-2.23
2022-11-29T12:59:35.430Z,-2.36
2022-11-29T13:04:59.927Z,-2.45
2022-11-29T13:10:46.152Z,-2.59
2022-11-29T13:16:02.081Z,-2.68
2022-11-29T13:21:11.908Z,-2.77
2022-11-29T13:26:17.363Z,-2.79
2022-11-29T13:31:23.793Z,-2.99
2022-11-29T13:36:58.221Z,-3.03
2022-11-29T13:42:16.772Z,-3.14
2022-11-29T13:47:21.546Z,-3.26
2022-11-29T13:52:43.422Z,-3.30
2022-11-29T14:03:24.360Z,-3.48
2022-11-29T14:14:16.952Z,-3.61
2022-11-29T14:19:26.738Z,-3.74
2022-11-29T14:24:36.140Z,-3.78
2022-11-29T14:29:51.081Z,-3.83
2022-11-29T14:35:10.268Z,-3.89
2022-11-29T14:40:20.590Z,-4.06
2022-11-29T14:45:30.911Z,-4.12
2022-11-29T14:50:40.275Z,-4.19
2022-11-29T14:56:30.622Z,-4.32
2022-11-29T15:01:10.735Z,-4.35
2022-11-29T15:06:24.381Z,-4.40
2022-11-29T15:11:53.079Z,-4.43
2022-11-29T15:17:03.904Z,-4.55
2022-11-29T15:22:18.624Z,-4.65
2022-11-29T15:27:23.171Z,-4.67
2022-11-29T15:32:32.844Z,-4.67
2022-11-29T15:37:36.792Z,-4.73
2022-11-29T15:42:50.238Z,-4.72
2022-11-29T15:47:54.486Z,-4.76
2022-11-29T15:53:04.216Z,-4.81
2022-11-29T15:58:12.020Z,-4.84
2022-11-29T16:03:43.940Z,-4.93
2022-11-29T16:08:48.709Z,-4.95
2022-11-29T16:14:13.593Z,-5.04
2022-11-29T16:19:29.168Z,-5.09
2022-11-29T16:24:36.223Z,-5.19
2022-11-29T16:29:45.376Z,-5.21
2022-11-29T16:34:48.834Z,-5.27
2022-11-29T16:39:57.079Z,-5.34
2022-11-29T16:45:36.954Z,-5.41
2022-11-29T16:50:40.294Z,-5.46
2022-11-29T16:55:43.485Z,-5.53
2022-11-29T17:00:46.774Z,-5.55
2022-11-29T17:05:50.448Z,-5.62
2022-11-29T17:10:53.645Z,-5.56
2022-11-29T17:15:56.951Z,-5.59
2022-11-29T17:21:00.733Z,-5.62
2022-11-29T17:26:04.038Z,-5.61
2022-11-29T17:31:11.223Z,-5.65
2022-11-29T17:36:18.029Z,-5.64
2022-11-29T17:41:23.655Z,-5.71
2022-11-29T17:46:29.491Z,-5.75
2022-11-29T17:56:56.420Z,-5.79
2022-11-29T18:01:59.642Z,-5.83
2022-11-29T18:07:03.035Z,-5.91
2022-11-29T18:12:06.359Z,-5.97
2022-11-29T18:17:13.135Z,-6.02
2022-11-29T18:22:16.372Z,-6.10
2022-11-29T18:27:19.644Z,-6.14
2022-11-29T18:32:22.807Z,-6.14
2022-11-29T18:37:54.498Z,-6.10
2022-11-29T18:42:51.303Z,-6.14
2022-11-29T18:47:54.674Z,-6.19
2022-11-29T18:52:59.107Z,-6.22
2022-11-29T18:58:02.345Z,-6.25
2022-11-29T19:03:05.442Z,-6.28
2022-11-29T19:08:08.526Z,-6.35
2022-11-29T19:13:11.688Z,-6.36
2022-11-29T19:18:14.901Z,-6.39
2022-11-29T19:23:21.645Z,-6.49
2022-11-29T19:28:24.839Z,-6.54
2022-11-29T19:33:31.068Z,-6.56
2022-11-29T19:38:38.132Z,-6.65
2022-11-29T19:43:41.269Z,-6.61
2022-11-29T19:48:44.994Z,-6.67
2022-11-29T19:53:48.675Z,-6.78
2022-11-29T19:58:52.801Z,-6.76
2022-11-29T20:03:59.587Z,-6.79
2022-11-29T20:09:02.789Z,-6.92
2022-11-29T20:14:08.164Z,-6.92
2022-11-29T20:19:13.833Z,-6.96
2022-11-29T20:24:17.657Z,-7.00
2022-11-29T20:29:22.112Z,-7.04
2022-11-29T20:34:25.565Z,-7.03
2022-11-29T20:39:35.192Z,-7.00
2022-11-29T20:44:54.154Z,-7.00
2022-11-29T20:49:57.953Z,-7.07
2022-11-29T20:55:01.151Z,-7.09
2022-11-29T21:00:11.489Z,-7.17
2022-11-29T21:05:16.531Z,-7.19
2022-11-29T21:17:33.364Z,-7.33
2022-11-29T21:23:24.138Z,-7.34
2022-11-29T21:29:06.030Z,-7.31
2022-11-29T21:34:09.240Z,-7.33
2022-11-29T21:39:15.756Z,-7.35
2022-11-29T21:44:18.841Z,-7.39
2022-11-29T21:49:21.956Z,-7.42
2022-11-29T21:54:25.053Z,-7.45
2022-11-29T21:59:28.384Z,-7.51
2022-11-29T22:04:31.496Z,-7.57
2022-11-29T22:09:34.645Z,-7.59
2022-11-29T22:14:37.762Z,-7.71
2022-11-29T22:19:41.175Z,-7.71
2022-11-29T22:24:44.430Z,-7.73
2022-11-29T22:29:49.137Z,-7.80
2022-11-29T22:34:55.047Z,-7.82
2022-11-29T22:39:58.118Z,-7.88
2022-11-29T22:45:02.445Z,-7.91
2022-11-29T22:50:11.308Z,-7.99
2022-11-29T22:55:14.434Z,-7.93
2022-11-29T23:00:17.679Z,-7.98
2022-11-29T23:05:20.840Z,-8.04
2022-11-29T23:10:24.831Z,-7.98
2022-11-29T23:15:27.934Z,-8.00
2022-11-29T23:20:31.082Z,-8.06
2022-11-29T23:25:34.173Z,-8.06
2022-11-29T23:30:37.208Z,-8.06
2022-11-29T23:35:40.345Z,-8.07
2022-11-29T23:40:46.974Z,-8.06
2022-11-29T23:45:50.407Z,-8.06
2022-11-29T23:50:53.551Z,-8.13
2022-11-29T23:56:01.614Z,-8.16
